Time;durP1;ratioP1;P1;durP2;ratioP2;P2;SDS_P1;SDS_P2;PMS_P1;PMS_P2;Temp;Humidity;BMP_temperature;BMP_pressure;BME280_temperature;BME280_humidity;BME280_pressure;Samples;Min_cycle;Max_cycle;Signal;HPM_P1;HPM_P2
2022/06/15 00:01:58;;;;;;;2.92;2.63;;;16.90;99.90;;;;;;5030284;28;20233;-92
2022/06/15 00:04:29;;;;;;;4.78;3.20;;;16.90;99.90;;;;;;5030408;28;20216;-93
2022/06/15 00:06:57;;;;;;;2.88;2.30;;;16.90;99.90;;;;;;5030140;28;20202;-93
2022/06/15 00:09:25;;;;;;;3.53;2.53;;;16.80;99.90;;;;;;5030338;28;20284;-93
2022/06/15 00:11:54;;;;;;;3.00;2.70;;;16.80;99.90;;;;;;5030080;28;20214;-93
2022/06/15 00:14:25;;;;;;;3.95;2.70;;;16.80;99.90;;;;;;5030163;28;20369;-93
2022/06/15 00:16:53;;;;;;;2.42;2.30;;;16.70;99.90;;;;;;5032554;28;20206;-92
2022/06/15 00:19:22;;;;;;;4.75;2.92;;;16.70;99.90;;;;;;5032483;28;20214;-93
2022/06/15 00:21:52;;;;;;;3.55;2.50;;;16.70;99.90;;;;;;5032338;28;20241;-92
2022/06/15 00:24:20;;;;;;;3.80;2.45;;;16.70;99.90;;;;;;5033047;28;20230;-92
2022/06/15 00:26:49;;;;;;;1.92;1.83;;;16.70;99.90;;;;;;5032893;28;20209;-92
2022/06/15 00:29:17;;;;;;;2.15;1.95;;;16.70;99.90;;;;;;5024557;28;20246;-93
2022/06/15 00:31:45;;;;;;;3.35;2.90;;;16.70;99.90;;;;;;5032270;28;20198;-92
2022/06/15 00:34:14;;;;;;;4.10;2.38;;;16.70;99.90;;;;;;5032143;28;20222;-92
2022/06/15 00:36:42;;;;;;;2.83;2.55;;;16.70;99.90;;;;;;5032657;28;20269;-92
2022/06/15 00:39:12;;;;;;;2.30;2.10;;;16.70;99.90;;;;;;5032297;28;20242;-92
2022/06/15 00:41:43;;;;;;;3.97;2.65;;;16.70;99.90;;;;;;5032449;28;20210;-92
2022/06/15 00:44:32;;;;;;;2.60;2.20;;;16.70;99.90;;;;;;5033102;28;20237;-92
2022/06/15 00:47:03;;;;;;;3.13;2.03;;;16.70;99.90;;;;;;5036295;28;20301;-91
2022/06/15 00:49:36;;;;;;;2.47;2.20;;;16.70;99.90;;;;;;5036084;28;20245;-92
2022/06/15 00:52:09;;;;;;;2.95;2.38;;;16.60;99.90;;;;;;5035735;28;20202;-92
2022/06/15 00:54:39;;;;;;;2.67;2.47;;;16.60;99.90;;;;;;5036198;28;20206;-92
2022/06/15 00:57:08;;;;;;;3.38;3.08;;;16.60;99.90;;;;;;5036565;28;20206;-92
2022/06/15 00:59:41;;;;;;;2.95;2.45;;;16.50;99.90;;;;;;5036370;28;20302;-92
2022/06/15 01:02:09;;;;;;;2.97;2.55;;;16.50;99.90;;;;;;5036015;28;20214;-92
2022/06/15 01:04:41;;;;;;;2.40;2.20;;;16.40;99.90;;;;;;5036116;28;20215;-92
2022/06/15 01:07:20;;;;;;;2.35;2.25;;;16.40;99.90;;;;;;5035964;28;20206;-93
2022/06/15 01:10:01;;;;;;;3.00;2.80;;;16.40;99.90;;;;;;5035715;28;20317;-92
2022/06/15 01:12:36;;;;;;;3.47;2.80;;;16.30;99.90;;;;;;5036090;28;20234;-92
2022/06/15 01:15:20;;;;;;;3.47;3.05;;;16.20;99.90;;;;;;5035959;28;20225;-92
2022/06/15 01:17:59;;;;;;;3.15;2.85;;;16.20;99.90;;;;;;5035783;28;20206;-92
2022/06/15 01:20:58;;;;;;;4.03;2.67;;;16.20;99.90;;;;;;5035462;28;20225;-91
2022/06/15 01:23:59;;;;;;;3.70;3.10;;;16.20;99.90;;;;;;5029843;28;20202;-92
2022/06/15 01:27:01;;;;;;;3.28;2.63;;;16.10;99.90;;;;;;5035276;28;20313;-92
2022/06/15 01:30:17;;;;;;;4.45;2.90;;;16.00;99.90;;;;;;5035163;28;20257;-92
2022/06/15 01:33:05;;;;;;;3.20;2.40;;;16.00;99.90;;;;;;5035546;28;20237;-92
2022/06/15 01:35:45;;;;;;;3.88;3.40;;;15.90;99.90;;;;;;5035337;28;20232;-92
2022/06/15 01:38:22;;;;;;;3.33;2.78;;;15.90;99.90;;;;;;5035608;28;20214;-92
2022/06/15 01:40:58;;;;;;;2.63;2.40;;;15.80;99.90;;;;;;5034698;28;20206;-92
2022/06/15 01:43:31;;;;;;;3.53;2.88;;;15.80;99.90;;;;;;5035850;28;20229;-92
2022/06/15 01:46:00;;;;;;;3.45;3.08;;;15.80;99.90;;;;;;5035125;28;20214;-92
2022/06/15 01:48:32;;;;;;;2.83;2.63;;;15.80;99.90;;;;;;5035113;28;20292;-92
2022/06/15 01:51:05;;;;;;;2.88;2.67;;;15.70;99.90;;;;;;5035218;28;20321;-92
2022/06/15 01:53:37;;;;;;;2.10;2.00;;;15.70;99.90;;;;;;5035247;28;20394;-92
2022/06/15 01:56:10;;;;;;;4.32;3.40;;;15.70;99.90;;;;;;5035030;28;20249;-93
2022/06/15 01:58:42;;;;;;;4.68;2.95;;;15.70;99.90;;;;;;5034778;28;20314;-92
2022/06/15 02:01:17;;;;;;;5.53;2.92;;;15.70;99.90;;;;;;5034444;28;20195;-92
2022/06/15 02:03:54;;;;;;;3.00;2.80;;;15.70;99.90;;;;;;5040515;28;20236;-91
2022/06/15 02:06:36;;;;;;;2.83;2.63;;;15.70;99.90;;;;;;5035655;28;20214;-92
2022/06/15 02:09:14;;;;;;;2.50;2.30;;;15.60;99.90;;;;;;5040419;28;20262;-92
2022/06/15 02:11:43;;;;;;;3.08;2.80;;;15.60;99.90;;;;;;5034652;28;20359;-91
2022/06/15 02:14:18;;;;;;;2.63;2.42;;;15.60;99.90;;;;;;5034670;28;20206;-92
2022/06/15 02:16:52;;;;;;;2.80;2.60;;;15.60;99.90;;;;;;5035022;28;20214;-92
2022/06/15 02:19:30;;;;;;;2.90;2.40;;;15.60;99.90;;;;;;5034625;28;20230;-92
2022/06/15 02:22:03;;;;;;;3.53;3.03;;;15.60;99.90;;;;;;5034257;28;20293;-92
2022/06/15 02:24:33;;;;;;;2.47;2.28;;;15.60;99.90;;;;;;5034942;28;20214;-92
2022/06/15 02:27:03;;;;;;;3.47;2.92;;;15.60;99.90;;;;;;5034542;28;20241;-92
2022/06/15 02:29:35;;;;;;;3.40;3.13;;;15.50;99.90;;;;;;5041761;28;20222;-91
2022/06/15 02:32:07;;;;;;;3.90;3.13;;;15.50;99.90;;;;;;5034561;28;20310;-92
2022/06/15 02:34:37;;;;;;;3.65;2.60;;;15.50;99.90;;;;;;5034943;28;20199;-92
2022/06/15 02:37:06;;;;;;;2.95;2.72;;;15.40;99.90;;;;;;5034671;28;20300;-92
2022/06/15 02:39:35;;;;;;;4.38;2.95;;;15.40;99.90;;;;;;5034374;28;20256;-92
2022/06/15 02:42:23;;;;;;;4.30;3.25;;;15.40;99.90;;;;;;5034139;28;20206;-92
2022/06/15 02:44:53;;;;;;;2.40;2.22;;;15.30;99.90;;;;;;5033647;28;20289;-92
2022/06/15 02:47:24;;;;;;;3.05;2.75;;;15.30;99.90;;;;;;5034024;28;20198;-92
2022/06/15 02:49:54;;;;;;;3.10;2.80;;;15.30;99.90;;;;;;5034047;28;20282;-92
2022/06/15 02:52:26;;;;;;;6.47;3.60;;;15.30;99.90;;;;;;5033721;28;20293;-92
2022/06/15 02:54:56;;;;;;;2.78;2.58;;;15.30;99.90;;;;;;5033894;28;20276;-92
2022/06/15 02:57:25;;;;;;;3.05;2.58;;;15.20;99.90;;;;;;5034099;28;20218;-92
2022/06/15 02:59:55;;;;;;;2.15;2.05;;;15.20;99.90;;;;;;5033786;28;20333;-92
2022/06/15 03:02:23;;;;;;;2.95;2.75;;;15.10;99.90;;;;;;5033582;28;20252;-92
2022/06/15 03:04:53;;;;;;;3.92;2.65;;;15.20;99.90;;;;;;5033818;28;20206;-92
2022/06/15 03:07:22;;;;;;;2.88;2.65;;;15.20;99.90;;;;;;5032590;28;20211;-92
2022/06/15 03:09:51;;;;;;;3.88;3.10;;;15.10;99.90;;;;;;5033694;28;20242;-92
2022/06/15 03:12:19;;;;;;;3.00;2.80;;;15.20;99.90;;;;;;5033219;28;20305;-92
2022/06/15 03:14:47;;;;;;;3.88;3.40;;;15.20;99.90;;;;;;5033692;28;20229;-92
2022/06/15 03:17:15;;;;;;;2.85;2.65;;;15.20;99.90;;;;;;5033723;28;20207;-92
2022/06/15 03:19:44;;;;;;;7.05;2.95;;;15.10;99.90;;;;;;5033236;28;20230;-92
2022/06/15 03:22:14;;;;;;;3.22;2.92;;;15.20;99.90;;;;;;5033467;28;20269;-92
2022/06/15 03:24:42;;;;;;;3.55;3.10;;;15.10;99.90;;;;;;5033442;28;20227;-92
2022/06/15 03:27:11;;;;;;;3.42;3.15;;;15.20;99.90;;;;;;5033308;28;20237;-91
2022/06/15 03:29:40;;;;;;;2.72;2.53;;;15.20;99.90;;;;;;5033527;28;20237;-92
2022/06/15 03:32:12;;;;;;;4.20;2.85;;;15.20;99.90;;;;;;5032738;28;20272;-92
2022/06/15 03:34:40;;;;;;;2.80;2.60;;;15.20;99.90;;;;;;5033126;28;20202;-92
2022/06/15 03:37:09;;;;;;;3.30;2.85;;;15.30;99.90;;;;;;5033250;28;20225;-92
2022/06/15 03:39:40;;;;;;;4.18;2.83;;;15.30;99.90;;;;;;5033082;28;20230;-92
2022/06/15 03:42:11;;;;;;;3.92;3.17;;;15.30;99.90;;;;;;5033093;28;20238;-92
2022/06/15 03:44:41;;;;;;;4.45;3.50;;;15.40;99.90;;;;;;5032848;28;20205;-92
2022/06/15 03:47:10;;;;;;;3.97;2.75;;;15.40;99.90;;;;;;5033299;28;20261;-92
2022/06/15 03:49:42;;;;;;;3.40;2.95;;;15.50;99.90;;;;;;5033048;28;20232;-92
2022/06/15 03:52:11;;;;;;;3.50;3.20;;;15.50;99.90;;;;;;5032427;28;20226;-92
2022/06/15 03:54:41;;;;;;;3.20;2.90;;;15.50;99.90;;;;;;5033023;28;20265;-91
2022/06/15 03:57:10;;;;;;;2.90;2.70;;;15.60;99.90;;;;;;5033381;28;20215;-92
2022/06/15 03:59:40;;;;;;;8.80;3.17;;;15.70;99.90;;;;;;5033008;28;20226;-92
2022/06/15 04:02:09;;;;;;;4.70;4.05;;;15.70;99.90;;;;;;5032774;28;20213;-92
2022/06/15 04:04:40;;;;;;;4.25;3.25;;;15.80;99.90;;;;;;5033221;28;20249;-92
2022/06/15 04:08:34;;;;;;;3.33;3.03;;;15.80;99.90;;;;;;5032489;28;20221;-92
2022/06/15 04:09:59;;;;;;;2.97;2.72;;;15.80;99.90;;;;;;5032621;28;20250;-93
2022/06/15 04:12:34;;;;;;;4.95;4.13;;;15.90;99.90;;;;;;5032377;28;20222;-92
2022/06/15 04:15:03;;;;;;;3.33;3.08;;;16.00;99.90;;;;;;5032981;28;20210;-92
2022/06/15 04:17:32;;;;;;;3.33;2.92;;;16.00;99.90;;;;;;5032352;28;20207;-92
2022/06/15 04:22:46;;;;;;;3.42;3.10;;;16.20;99.90;;;;;;5039759;28;20213;-91
2022/06/15 04:25:16;;;;;;;4.68;3.17;;;16.20;99.90;;;;;;5039533;28;20285;-92
2022/06/15 04:27:47;;;;;;;5.03;3.28;;;16.30;99.90;;;;;;5039414;28;20209;-91
2022/06/15 04:30:17;;;;;;;3.75;3.45;;;16.40;99.90;;;;;;5038765;28;20298;-92
2022/06/15 04:32:46;;;;;;;7.65;3.60;;;16.40;99.90;;;;;;5039135;28;20226;-91
2022/06/15 04:35:21;;;;;;;4.85;3.30;;;16.50;99.90;;;;;;5039215;28;20210;-93
2022/06/15 04:37:51;;;;;;;16.95;4.05;;;16.50;99.90;;;;;;5038832;28;20210;-92
2022/06/15 04:40:22;;;;;;;7.07;3.15;;;16.60;99.90;;;;;;5038836;28;20230;-92
2022/06/15 04:42:52;;;;;;;3.67;3.35;;;16.60;99.90;;;;;;5039429;28;20260;-93
2022/06/15 04:45:21;;;;;;;4.32;3.58;;;16.70;99.90;;;;;;5038998;28;20208;-92
2022/06/15 04:47:57;;;;;;;2.72;2.53;;;16.70;99.90;;;;;;5039044;28;20226;-93
2022/06/15 04:50:26;;;;;;;4.32;3.92;;;16.80;99.90;;;;;;5039011;28;20214;-92
2022/06/15 04:52:56;;;;;;;3.45;3.15;;;16.80;99.90;;;;;;5038638;28;20218;-92
2022/06/15 04:55:31;;;;;;;3.85;3.13;;;16.90;99.90;;;;;;5039009;28;20218;-93
2022/06/15 04:58:02;;;;;;;27.77;3.78;;;16.90;99.90;;;;;;5038751;28;20225;-93
2022/06/15 05:00:36;;;;;;;4.22;3.47;;;16.90;99.90;;;;;;5038830;28;20264;-92
2022/06/15 05:03:07;;;;;;;4.47;3.25;;;16.80;99.90;;;;;;5039091;28;20208;-93
2022/06/15 05:05:37;;;;;;;4.65;4.15;;;16.80;99.90;;;;;;5038836;28;20214;-92
2022/06/15 05:08:10;;;;;;;3.92;3.58;;;16.80;99.90;;;;;;5038786;28;20206;-92
2022/06/15 05:10:44;;;;;;;3.55;3.25;;;16.80;99.90;;;;;;5038292;28;20225;-92
2022/06/15 05:13:12;;;;;;;4.53;3.38;;;16.80;99.90;;;;;;5038238;28;20230;-92
2022/06/15 05:15:41;;;;;;;4.25;3.72;;;16.80;99.90;;;;;;5038733;28;20206;-93
2022/06/15 05:18:11;;;;;;;3.80;3.40;;;16.90;99.90;;;;;;5038768;28;20278;-92
2022/06/15 05:20:41;;;;;;;4.03;3.67;;;16.90;99.90;;;;;;5038110;28;20241;-92
2022/06/15 05:23:14;;;;;;;4.32;3.92;;;16.90;99.90;;;;;;5038488;28;20207;-92
2022/06/15 05:25:44;;;;;;;4.35;3.95;;;16.90;99.90;;;;;;5038451;28;20211;-92
2022/06/15 05:28:14;;;;;;;8.25;3.92;;;16.90;99.90;;;;;;5039096;28;20289;-92
2022/06/15 05:30:43;;;;;;;4.57;3.83;;;16.90;99.90;;;;;;5036357;28;20258;-92
2022/06/15 05:33:12;;;;;;;4.80;3.50;;;17.00;99.90;;;;;;5035429;28;20234;-92
2022/06/15 05:35:40;;;;;;;8.18;3.95;;;17.00;99.90;;;;;;5035405;28;20203;-92
2022/06/15 05:38:35;;;;;;;4.47;4.13;;;17.00;99.90;;;;;;5035088;28;20276;-92
2022/06/15 05:41:08;;;;;;;4.25;3.60;;;17.00;99.90;;;;;;5035225;28;20287;-91
2022/06/15 05:43:38;;;;;;;4.38;4.07;;;17.00;99.90;;;;;;5035350;28;20209;-92
2022/06/15 05:46:21;;;;;;;6.90;5.38;;;17.10;99.90;;;;;;5035686;28;20253;-92
2022/06/15 05:48:49;;;;;;;4.10;3.78;;;17.10;99.90;;;;;;5035701;28;20230;-92
2022/06/15 05:51:18;;;;;;;4.57;4.18;;;17.10;99.90;;;;;;5035112;28;20215;-92
2022/06/15 05:53:46;;;;;;;4.97;4.35;;;17.10;99.90;;;;;;5035254;28;20223;-92
2022/06/15 05:56:17;;;;;;;6.20;5.03;;;17.10;99.90;;;;;;5035034;28;20202;-92
2022/06/15 05:58:45;;;;;;;5.80;4.75;;;17.20;99.90;;;;;;5035339;28;20230;-92
2022/06/15 06:01:20;;;;;;;5.45;4.47;;;17.30;99.90;;;;;;5034705;28;20202;-91
2022/06/15 06:03:58;;;;;;;4.95;3.90;;;17.40;99.90;;;;;;5034731;28;20206;-92
2022/06/15 06:06:28;;;;;;;5.45;4.57;;;17.50;99.90;;;;;;5035149;28;20202;-92
2022/06/15 06:08:56;;;;;;;6.35;4.50;;;17.50;99.90;;;;;;5034129;28;20226;-92
2022/06/15 06:11:37;;;;;;;5.88;5.30;;;17.60;99.90;;;;;;5034666;28;20214;-92
2022/06/15 06:14:05;;;;;;;5.40;4.80;;;17.70;99.90;;;;;;5034418;28;20198;-92
2022/06/15 06:16:34;;;;;;;7.10;5.07;;;17.70;99.90;;;;;;5034547;28;20222;-92
2022/06/15 06:19:03;;;;;;;5.07;4.53;;;17.80;99.90;;;;;;5034479;28;20222;-92
2022/06/15 06:21:34;;;;;;;6.38;5.78;;;17.80;99.90;;;;;;5034652;28;20263;-92
2022/06/15 06:24:03;;;;;;;6.20;4.72;;;17.90;99.90;;;;;;5034650;28;20230;-92
2022/06/15 06:26:33;;;;;;;5.88;5.30;;;18.00;99.90;;;;;;5034569;28;20210;-91
2022/06/15 06:29:02;;;;;;;5.90;4.65;;;18.10;99.90;;;;;;5034746;28;20226;-92
2022/06/15 06:31:33;;;;;;;6.00;4.63;;;18.20;99.90;;;;;;5037367;28;20293;-92
2022/06/15 06:34:01;;;;;;;6.88;5.10;;;18.20;99.90;;;;;;5037526;28;20292;-91
2022/06/15 06:36:34;;;;;;;6.38;4.82;;;18.30;99.90;;;;;;5036445;28;20259;-92
2022/06/15 06:39:15;;;;;;;5.65;4.78;;;18.50;99.90;;;;;;5034788;28;20223;-92
2022/06/15 06:41:48;;;;;;;6.95;4.50;;;18.60;99.90;;;;;;5033328;28;20213;-92
2022/06/15 06:44:29;;;;;;;;;;;;;;;;;;;;;
2022/06/15 06:47:10;;;;;;;6.88;4.55;;;18.80;99.90;;;;;;5034508;28;20207;-92
2022/06/15 06:49:46;;;;;;;4.80;4.40;;;19.00;99.90;;;;;;5034497;28;20230;-92
2022/06/15 06:52:29;;;;;;;7.88;4.90;;;19.20;99.90;;;;;;5033986;28;20206;-92
2022/06/15 06:54:58;;;;;;;5.38;4.80;;;19.20;99.90;;;;;;5041205;28;20203;-92
2022/06/15 06:57:42;;;;;;;4.40;3.92;;;19.40;99.90;;;;;;5034671;28;20280;-93
2022/06/15 07:00:12;;;;;;;4.07;3.70;;;19.60;99.90;;;;;;5034103;28;20222;-93
2022/06/15 07:02:40;;;;;;;4.10;3.40;;;19.80;99.90;;;;;;5033831;28;20199;-93
2022/06/15 07:05:19;;;;;;;4.28;3.88;;;19.90;99.90;;;;;;5033866;28;20229;-92
2022/06/15 07:07:51;;;;;;;3.88;3.47;;;19.90;99.90;;;;;;5033201;28;20230;-92
2022/06/15 07:10:30;;;;;;;6.13;3.55;;;20.10;99.90;;;;;;5033411;28;20217;-92
2022/06/15 07:13:00;;;;;;;4.78;4.05;;;20.20;99.90;;;;;;5033007;28;20217;-92
2022/06/15 07:15:35;;;;;;;4.40;3.40;;;20.70;99.90;;;;;;5033558;28;20222;-92
2022/06/15 07:18:05;;;;;;;8.38;4.13;;;21.10;99.90;;;;;;5033952;28;20207;-92
2022/06/15 07:20:34;;;;;;;3.63;3.10;;;21.90;99.90;;;;;;5033771;28;20210;-92
2022/06/15 07:23:02;;;;;;;5.18;3.95;;;22.70;99.90;;;;;;5033437;28;20206;-92
2022/06/15 07:25:31;;;;;;;3.55;3.25;;;23.40;99.90;;;;;;5032918;28;20293;-92
2022/06/15 07:28:03;;;;;;;3.35;2.97;;;23.80;99.90;;;;;;5033349;28;20229;-92
2022/06/15 07:30:32;;;;;;;4.70;3.85;;;24.10;99.90;;;;;;5032815;28;20305;-92
2022/06/15 07:33:02;;;;;;;5.47;3.20;;;24.50;99.90;;;;;;5033187;28;20244;-93
2022/06/15 07:35:33;;;;;;;4.60;2.90;;;25.20;99.90;;;;;;5033476;28;20294;-92
2022/06/15 07:38:04;;;;;;;4.55;3.33;;;26.50;99.90;;;;;;5032961;28;20207;-92
2022/06/15 07:40:54;;;;;;;3.25;2.80;;;26.60;99.70;;;;;;5032598;28;20271;-93
2022/06/15 07:43:40;;;;;;;2.78;2.58;;;26.60;98.40;;;;;;5032969;28;20207;-92
2022/06/15 07:46:09;;;;;;;4.13;3.35;;;28.30;96.60;;;;;;5032910;28;20206;-93
2022/06/15 07:51:26;;;;;;;3.35;2.88;;;30.10;92.20;;;;;;5032860;28;20301;-93
2022/06/15 07:53:54;;;;;;;4.93;2.60;;;30.70;89.50;;;;;;5032450;28;20217;-92
2022/06/15 07:56:34;;;;;;;3.10;2.80;;;31.00;88.10;;;;;;5032743;28;20230;-92
2022/06/15 07:59:04;;;;;;;4.38;3.15;;;30.70;82.90;;;;;;5033019;28;20230;-92
2022/06/15 08:01:35;;;;;;;3.50;2.80;;;30.40;83.10;;;;;;5033048;28;20202;-92
2022/06/15 08:04:05;;;;;;;3.80;3.13;;;31.20;81.90;;;;;;5032803;28;20205;-92
2022/06/15 08:06:38;;;;;;;2.60;2.40;;;31.80;79.50;;;;;;5032908;28;20268;-93
2022/06/15 08:09:32;;;;;;;3.38;2.75;;;32.00;75.80;;;;;;5032609;28;20234;-92
2022/06/15 08:12:23;;;;;;;3.22;2.70;;;32.20;77.70;;;;;;5032683;28;20217;-92
2022/06/15 08:14:55;;;;;;;8.75;2.15;;;32.50;73.40;;;;;;5032727;28;20313;-92
2022/06/15 08:17:30;;;;;;;2.38;2.17;;;32.80;78.20;;;;;;5033210;28;20293;-92
2022/06/15 08:20:08;;;;;;;3.47;2.30;;;33.10;71.30;;;;;;5032395;28;20268;-93
2022/06/15 08:22:41;;;;;;;2.75;2.55;;;33.40;75.30;;;;;;5032519;28;20276;-92
2022/06/15 08:25:16;;;;;;;2.90;2.30;;;33.20;67.70;;;;;;5032818;28;20209;-92
2022/06/15 08:27:44;;;;;;;3.58;2.47;;;33.20;68.30;;;;;;5032763;28;20205;-93
2022/06/15 08:30:16;;;;;;;2.80;2.60;;;33.40;67.50;;;;;;5032096;28;20245;-93
2022/06/15 08:32:45;;;;;;;3.13;2.63;;;33.00;67.60;;;;;;5032986;28;20267;-92
2022/06/15 08:35:15;;;;;;;2.80;2.17;;;32.70;68.00;;;;;;5032495;28;20240;-93
2022/06/15 08:37:43;;;;;;;2.75;2.40;;;32.50;67.70;;;;;;5032630;28;20213;-93
2022/06/15 08:40:13;;;;;;;4.32;3.13;;;31.50;69.10;;;;;;5032181;28;20228;-93
2022/06/15 08:42:50;;;;;;;3.53;2.47;;;30.70;71.00;;;;;;5032595;28;20203;-92
2022/06/15 08:45:27;;;;;;;3.17;2.80;;;30.20;71.80;;;;;;5032705;28;20225;-92
2022/06/15 08:48:25;;;;;;;11.68;2.88;;;30.10;73.80;;;;;;5032592;28;20206;-93
2022/06/15 08:50:59;;;;;;;3.95;2.90;;;29.60;73.90;;;;;;5031203;28;20256;-93
2022/06/15 08:53:45;;;;;;;4.78;2.88;;;30.00;77.50;;;;;;5032390;28;20232;-93
2022/06/15 08:56:22;;;;;;;2.28;2.08;;;30.90;72.20;;;;;;5032509;28;20214;-92
2022/06/15 08:58:57;;;;;;;2.67;2.17;;;31.20;70.20;;;;;;5032173;28;20229;-93
2022/06/15 09:01:34;;;;;;;2.53;2.33;;;31.10;75.10;;;;;;5031911;28;20208;-92
2022/06/15 09:04:31;;;;;;;3.08;2.53;;;30.50;70.70;;;;;;5032620;28;20257;-93
2022/06/15 09:07:16;;;;;;;2.58;2.15;;;30.00;72.00;;;;;;5035676;28;20206;-92
2022/06/15 09:10:02;;;;;;;2.67;2.47;;;30.20;74.40;;;;;;5035730;28;20234;-93
2022/06/15 09:12:53;;;;;;;2.50;2.30;;;30.30;74.40;;;;;;5035378;28;20234;-93
2022/06/15 09:15:42;;;;;;;2.90;2.42;;;30.60;75.30;;;;;;5035480;28;20222;-92
2022/06/15 09:18:32;;;;;;;3.88;2.15;;;31.00;71.60;;;;;;5035961;28;20238;-92
2022/06/15 09:21:07;;;;;;;2.03;1.92;;;31.10;70.60;;;;;;5033972;28;20225;-93
2022/06/15 09:23:44;;;;;;;2.80;2.22;;;31.80;70.00;;;;;;5036107;28;20201;-92
2022/06/15 09:26:38;;;;;;;7.55;2.17;;;32.60;73.00;;;;;;5035644;28;20276;-92
2022/06/15 09:29:12;;;;;;;3.35;2.35;;;33.20;73.00;;;;;;5030717;28;20226;-93
2022/06/15 09:31:57;;;;;;;2.92;2.63;;;33.70;67.00;;;;;;5035507;28;20244;-93
2022/06/15 09:34:33;;;;;;;3.47;2.50;;;34.50;65.90;;;;;;5035022;28;20245;-93
2022/06/15 09:37:04;;;;;;;3.33;2.50;;;34.40;63.40;;;;;;5035660;28;20210;-94
2022/06/15 09:39:36;;;;;;;3.70;2.38;;;34.60;63.10;;;;;;5035214;28;20222;-92
2022/06/15 09:42:13;;;;;;;2.53;2.15;;;34.00;62.80;;;;;;5035020;28;20264;-93
2022/06/15 09:44:50;;;;;;;3.60;2.40;;;34.10;65.10;;;;;;5034852;28;20193;-92
2022/06/15 09:47:31;;;;;;;2.92;2.28;;;33.90;63.00;;;;;;5035392;28;20205;-92
2022/06/15 09:50:12;;;;;;;2.28;2.05;;;33.70;62.20;;;;;;5035121;28;20229;-93
2022/06/15 09:52:54;;;;;;;3.83;2.10;;;33.50;65.00;;;;;;5035284;28;20205;-93
2022/06/15 09:55:32;;;;;;;2.83;2.20;;;33.20;67.20;;;;;;5035123;28;20217;-93
2022/06/15 09:58:25;;;;;;;3.63;2.75;;;33.50;68.60;;;;;;5035258;28;20304;-93
2022/06/15 10:00:53;;;;;;;2.35;2.15;;;33.80;62.30;;;;;;5034867;28;20232;-92
2022/06/15 10:03:26;;;;;;;2.75;2.53;;;33.90;63.50;;;;;;5034924;28;20209;-92
2022/06/15 10:06:00;;;;;;;2.25;2.05;;;33.70;62.20;;;;;;5034909;28;20194;-92
2022/06/15 10:08:28;;;;;;;5.93;2.58;;;33.10;64.80;;;;;;5035092;28;20246;-93
2022/06/15 10:13:50;;;;;;;4.05;2.72;;;32.30;65.30;;;;;;5034563;28;20206;-93
2022/06/15 10:16:26;;;;;;;2.20;2.00;;;32.40;65.50;;;;;;5034317;28;20240;-93
2022/06/15 10:18:57;;;;;;;3.67;2.55;;;32.70;67.50;;;;;;5034754;28;20225;-93
2022/06/15 10:21:31;;;;;;;2.28;2.08;;;32.40;66.00;;;;;;5034403;28;20202;-92
2022/06/15 10:24:04;;;;;;;2.72;2.50;;;32.70;65.70;;;;;;5034865;28;20249;-92
2022/06/15 10:26:39;;;;;;;2.58;2.38;;;32.70;68.00;;;;;;5034634;28;20206;-93
2022/06/15 10:29:27;;;;;;;2.78;2.50;;;32.90;65.70;;;;;;5034271;28;20232;-91
2022/06/15 10:32:20;;;;;;;5.03;2.63;;;33.50;65.40;;;;;;5034313;28;20285;-92
2022/06/15 10:34:55;;;;;;;3.22;2.25;;;32.90;63.90;;;;;;5034470;28;20218;-92
2022/06/15 10:37:30;;;;;;;3.55;2.88;;;32.30;64.80;;;;;;5034416;28;20206;-92
2022/06/15 10:40:02;;;;;;;2.80;2.58;;;32.00;67.50;;;;;;5034336;28;20234;-93
2022/06/15 10:42:36;;;;;;;3.33;2.40;;;32.30;65.50;;;;;;5033973;28;20300;-93
2022/06/15 10:45:07;;;;;;;2.40;2.22;;;32.10;64.40;;;;;;5033895;28;20242;-93
2022/06/15 10:47:44;;;;;;;3.22;2.63;;;31.90;66.00;;;;;;5034247;28;20268;-93
2022/06/15 10:50:23;;;;;;;2.42;2.22;;;31.70;65.50;;;;;;5034051;28;20233;-93
2022/06/15 10:52:58;;;;;;;2.53;2.25;;;31.00;65.70;;;;;;5034038;28;20210;-93
2022/06/15 11:04:16;;;;;;;2.53;2.30;;;31.50;65.70;;;;;;5035833;28;20241;-93
2022/06/15 11:06:48;;;;;;;4.65;2.30;;;31.70;65.50;;;;;;5034690;28;20230;-93
2022/06/15 11:09:31;;;;;;;2.42;2.22;;;32.40;68.20;;;;;;5033807;28;20228;-93
2022/06/15 11:12:05;;;;;;;2.85;2.50;;;32.60;63.80;;;;;;5033470;28;20240;-93
2022/06/15 11:14:48;;;;;;;5.32;3.08;;;32.50;65.00;;;;;;5033452;28;20212;-93
2022/06/15 11:20:26;;;;;;;6.82;2.40;;;32.50;63.40;;;;;;5033376;28;20318;-93
2022/06/15 11:23:00;;;;;;;2.45;2.25;;;32.60;63.10;;;;;;5033737;28;20229;-93
2022/06/15 11:25:39;;;;;;;3.72;2.38;;;32.40;63.50;;;;;;5039576;28;20197;-93
2022/06/15 11:28:15;;;;;;;2.55;2.30;;;32.50;64.10;;;;;;5032722;28;20237;-93
2022/06/15 11:30:53;;;;;;;9.55;2.33;;;33.00;64.80;;;;;;5033173;28;20202;-93
2022/06/15 11:33:27;;;;;;;3.60;2.58;;;33.40;65.00;;;;;;5033111;28;20420;-93
2022/06/15 11:36:07;;;;;;;2.95;2.28;;;33.70;62.40;;;;;;5032696;28;20245;-93
2022/06/15 11:38:46;;;;;;;5.05;2.60;;;34.00;62.90;;;;;;5033016;28;20285;-93
2022/06/15 11:41:22;;;;;;;3.28;2.63;;;34.00;61.80;;;;;;5032894;28;20206;-93
2022/06/15 11:43:52;;;;;;;3.13;2.38;;;34.00;62.20;;;;;;5032949;28;20202;-93
2022/06/15 11:46:46;;;;;;;7.82;2.58;;;33.90;60.60;;;;;;5032795;28;20201;-93
2022/06/15 11:49:31;;;;;;;3.63;2.40;;;33.90;63.50;;;;;;5033195;28;20282;-93
2022/06/15 11:52:20;;;;;;;2.80;2.38;;;33.80;61.40;;;;;;5033021;28;20206;-93
2022/06/15 11:55:16;;;;;;;3.17;2.70;;;33.40;64.60;;;;;;5033400;28;20237;-93
2022/06/15 11:58:12;;;;;;;4.80;2.60;;;33.40;62.90;;;;;;5032892;28;20226;-93
2022/06/15 12:00:52;;;;;;;2.95;2.40;;;32.80;62.40;;;;;;5032543;28;20293;-93
2022/06/15 12:04:08;;;;;;;2.67;2.45;;;32.90;63.80;;;;;;5032758;28;20213;-93
2022/06/15 12:06:48;;;;;;;2.20;2.00;;;33.20;62.30;;;;;;5032727;28;20198;-93
2022/06/15 12:09:23;;;;;;;2.50;2.30;;;33.70;63.80;;;;;;5032473;28;20218;-93
2022/06/15 12:15:03;;;;;;;2.45;1.98;;;34.00;62.10;;;;;;4989283;28;20198;-93
2022/06/15 12:17:38;;;;;;;3.13;2.22;;;33.70;61.70;;;;;;5032327;28;20230;-93
2022/06/15 12:20:18;;;;;;;2.47;2.08;;;33.40;61.30;;;;;;5032496;28;20268;-93
2022/06/15 12:22:52;;;;;;;2.50;2.17;;;33.20;61.70;;;;;;5032447;28;20229;-93
2022/06/15 12:25:27;;;;;;;2.28;2.08;;;32.90;62.20;;;;;;5032187;28;20270;-93
2022/06/15 12:28:01;;;;;;;3.58;2.75;;;33.10;62.90;;;;;;5032722;28;20262;-93
2022/06/15 12:30:39;;;;;;;2.80;2.53;;;33.30;61.70;;;;;;5032546;28;20271;-93
2022/06/15 12:33:19;;;;;;;2.60;2.38;;;32.90;62.20;;;;;;5033026;28;20198;-92
2022/06/15 12:35:51;;;;;;;7.70;2.70;;;32.60;65.40;;;;;;5032479;28;20267;-93
2022/06/15 12:38:25;;;;;;;2.88;2.58;;;32.70;68.30;;;;;;5032629;28;20223;-93
2022/06/15 12:41:05;;;;;;;3.00;2.17;;;32.70;63.60;;;;;;5035674;28;20202;-93
2022/06/15 12:43:41;;;;;;;2.67;2.42;;;32.60;64.70;;;;;;5036309;28;20209;-93
2022/06/15 12:46:16;;;;;;;2.10;1.90;;;32.30;61.40;;;;;;5036350;28;20198;-93
2022/06/15 12:48:56;;;;;;;3.50;2.80;;;31.70;63.70;;;;;;5036137;28;20224;-93
2022/06/15 12:51:38;;;;;;;2.20;2.08;;;31.50;64.60;;;;;;5036377;28;20205;-93
2022/06/15 12:54:17;;;;;;;2.40;2.20;;;31.50;68.20;;;;;;5036353;28;20206;-92
2022/06/15 12:56:53;;;;;;;2.95;2.20;;;31.70;64.90;;;;;;5036006;28;20218;-94
2022/06/15 12:59:37;;;;;;;2.38;2.17;;;31.90;65.00;;;;;;5036304;28;20225;-93
2022/06/15 13:02:12;;;;;;;3.22;2.70;;;31.60;64.30;;;;;;5035809;28;20237;-92
2022/06/15 13:04:54;;;;;;;2.58;2.38;;;31.50;65.70;;;;;;5036248;28;20256;-93
2022/06/15 13:07:26;;;;;;;11.52;2.30;;;31.20;63.60;;;;;;5035711;28;20202;-93
2022/06/15 13:10:24;;;;;;;3.00;2.80;;;31.20;65.30;;;;;;5035323;28;20273;-92
2022/06/15 13:12:56;;;;;;;2.83;2.42;;;31.20;64.40;;;;;;5036069;28;20214;-93
2022/06/15 13:15:32;;;;;;;4.90;2.80;;;31.10;64.50;;;;;;5035679;28;20275;-93
2022/06/15 13:18:07;;;;;;;2.58;2.38;;;30.90;63.60;;;;;;5035863;28;20288;-93
2022/06/15 13:20:58;;;;;;;2.55;2.35;;;30.60;65.40;;;;;;5035591;28;20236;-93
2022/06/15 13:23:30;;;;;;;2.65;2.45;;;30.40;65.20;;;;;;5035708;28;20207;-93
2022/06/15 13:26:06;;;;;;;2.65;2.05;;;30.20;67.00;;;;;;5035704;28;20206;-93
2022/06/15 13:28:37;;;;;;;5.43;2.92;;;30.20;66.60;;;;;;5035322;28;20257;-93
2022/06/15 13:31:08;;;;;;;2.67;2.40;;;30.20;66.10;;;;;;5035445;28;20218;-93
2022/06/15 13:34:01;;;;;;;3.08;2.40;;;29.70;66.10;;;;;;5035609;28;20206;-93
2022/06/15 13:36:31;;;;;;;2.70;2.50;;;29.70;65.50;;;;;;5034619;28;20279;-92
2022/06/15 13:39:00;;;;;;;1.88;1.77;;;29.70;66.30;;;;;;5035147;28;20250;-93
2022/06/15 13:41:31;;;;;;;3.78;2.50;;;29.70;66.00;;;;;;5034712;28;20213;-92
2022/06/15 13:44:21;;;;;;;2.80;2.60;;;29.70;66.70;;;;;;5035544;28;20218;-93
2022/06/15 13:47:04;;;;;;;2.10;1.90;;;29.40;64.50;;;;;;5035229;28;20206;-94
2022/06/15 13:49:37;;;;;;;15.23;3.30;;;29.60;66.00;;;;;;5035337;28;20313;-93
2022/06/15 13:52:22;;;;;;;2.45;2.20;;;30.00;66.50;;;;;;5034447;28;20211;-93